Terminal Aerodrome Forecast
Issued by NWS

Home | Current Version | Previous Version | Text Only | Print | Product List | Glossary On
Versions: 1 2 3 4 5 6 7 8 9 10 11 12 13 14 15 16
000
FTUS45 KABQ 232340
TAFGUP
TAF
KGUP 232340Z 2400/2424 25013G23KT P6SM VCTS SCT060CB BKN120
      TEMPO 2400/2402 VRB25G35KT TSRA OVC050CB
     FM240200 25011KT P6SM VCSH SCT060 BKN090
     FM240700 VRB05KT P6SM BKN100
     FM241500 23006KT P6SM SCT110
     FM241900 31010KT P6SM FEW080=

USA.gov is the U.S. government's official web portal to all federal, state and local government web resources and services.